sensor_id;sensor_type;location;lat;lon;timestamp;pressure;altitude;pressure_sealevel;temperature;humidity
45403;BME280;47427;51.976;5.326;2022-08-24T00:03:06;101663.13;;;20.11;87.73
45403;BME280;47427;51.976;5.326;2022-08-24T00:06:33;101664.00;;;20.08;87.79
45403;BME280;47427;51.976;5.326;2022-08-24T00:09:56;101669.34;;;20.08;87.79
45403;BME280;47427;51.976;5.326;2022-08-24T00:13:19;101645.34;;;19.96;88.08
45403;BME280;47427;51.976;5.326;2022-08-24T00:16:42;101677.31;;;20.04;88.24
45403;BME280;47427;51.976;5.326;2022-08-24T00:20:08;101670.19;;;19.95;88.73
45403;BME280;47427;51.976;5.326;2022-08-24T00:23:31;101679.09;;;19.94;88.43
45403;BME280;47427;51.976;5.326;2022-08-24T00:26:54;101685.31;;;19.91;88.69
45403;BME280;47427;51.976;5.326;2022-08-24T00:30:19;101686.19;;;19.89;89.02
45403;BME280;47427;51.976;5.326;2022-08-24T00:33:42;101677.31;;;19.87;89.06
45403;BME280;47427;51.976;5.326;2022-08-24T00:37:07;101677.31;;;19.81;89.54
45403;BME280;47427;51.976;5.326;2022-08-24T00:40:34;101679.09;;;19.80;89.47
45403;BME280;47427;51.976;5.326;2022-08-24T00:44:02;101675.53;;;19.75;89.33
45403;BME280;47427;51.976;5.326;2022-08-24T00:47:38;101686.16;;;19.77;89.52
45403;BME280;47427;51.976;5.326;2022-08-24T00:51:15;101678.16;;;19.69;89.54
45403;BME280;47427;51.976;5.326;2022-08-24T00:54:48;101679.06;;;19.68;90.04
45403;BME280;47427;51.976;5.326;2022-08-24T00:58:19;101687.03;;;19.69;90.13
45403;BME280;47427;51.976;5.326;2022-08-24T01:01:43;101675.53;;;19.67;89.95
45403;BME280;47427;51.976;5.326;2022-08-24T01:05:08;101667.47;;;19.60;90.03
45403;BME280;47427;51.976;5.326;2022-08-24T01:08:50;101669.25;;;19.62;90.05
45403;BME280;47427;51.976;5.326;2022-08-24T01:12:14;101671.91;;;19.59;90.44
45403;BME280;47427;51.976;5.326;2022-08-24T01:15:49;101662.13;;;19.54;91.06
45403;BME280;47427;51.976;5.326;2022-08-24T01:19:42;101668.34;;;19.54;90.94
45403;BME280;47427;51.976;5.326;2022-08-24T01:27:02;101669.25;;;19.58;91.28
45403;BME280;47427;51.976;5.326;2022-08-24T01:30:26;101663.94;;;19.55;91.52
45403;BME280;47427;51.976;5.326;2022-08-24T01:33:51;101664.78;;;19.52;91.71
45403;BME280;47427;51.976;5.326;2022-08-24T01:37:15;101669.19;;;19.47;92.11
45403;BME280;47427;51.976;5.326;2022-08-24T01:40:45;101674.56;;;19.50;92.25
45403;BME280;47427;51.976;5.326;2022-08-24T01:44:10;101661.22;;;19.44;92.12
45403;BME280;47427;51.976;5.326;2022-08-24T01:47:33;101661.22;;;19.41;92.69
45403;BME280;47427;51.976;5.326;2022-08-24T01:51:15;101674.53;;;19.44;92.57
45403;BME280;47427;51.976;5.326;2022-08-24T01:54:38;101679.84;;;19.45;93.52
45403;BME280;47427;51.976;5.326;2022-08-24T01:58:03;101664.78;;;19.40;93.47
45403;BME280;47427;51.976;5.326;2022-08-24T02:01:28;101678.97;;;19.45;94.02
45403;BME280;47427;51.976;5.326;2022-08-24T02:04:52;101680.72;;;19.41;93.82
45403;BME280;47427;51.976;5.326;2022-08-24T02:08:16;101671.84;;;19.35;93.96
45403;BME280;47427;51.976;5.326;2022-08-24T02:11:40;101686.94;;;19.37;93.93
45403;BME280;47427;51.976;5.326;2022-08-24T02:15:07;101678.03;;;19.34;93.88
45403;BME280;47427;51.976;5.326;2022-08-24T02:18:31;101685.13;;;19.33;93.76
45403;BME280;47427;51.976;5.326;2022-08-24T02:21:54;101693.09;;;19.32;93.76
45403;BME280;47427;51.976;5.326;2022-08-24T02:25:18;101693.09;;;19.32;93.51
45403;BME280;47427;51.976;5.326;2022-08-24T02:28:41;101682.44;;;19.24;93.64
45403;BME280;47427;51.976;5.326;2022-08-24T02:32:22;101693.06;;;19.21;93.61
45403;BME280;47427;51.976;5.326;2022-08-24T02:35:45;101684.22;;;19.20;93.90
45403;BME280;47427;51.976;5.326;2022-08-24T02:39:09;101680.63;;;19.15;93.78
45403;BME280;47427;51.976;5.326;2022-08-24T02:42:33;101682.41;;;19.15;93.86
45403;BME280;47427;51.976;5.326;2022-08-24T02:46:20;101665.53;;;19.08;94.24
45403;BME280;47427;51.976;5.326;2022-08-24T02:49:43;101671.72;;;19.09;94.37
45403;BME280;47427;51.976;5.326;2022-08-24T02:53:07;101674.38;;;19.05;94.42
45403;BME280;47427;51.976;5.326;2022-08-24T02:56:30;101669.06;;;19.02;94.91
45403;BME280;47427;51.976;5.326;2022-08-24T02:59:54;101677.03;;;19.04;94.85
45403;BME280;47427;51.976;5.326;2022-08-24T03:03:17;101677.03;;;19.02;94.90
45403;BME280;47427;51.976;5.326;2022-08-24T03:06:40;101669.91;;;18.95;95.02
45403;BME280;47427;51.976;5.326;2022-08-24T03:10:05;101680.56;;;19.00;95.81
45403;BME280;47427;51.976;5.326;2022-08-24T03:13:47;101692.09;;;19.03;95.58
45403;BME280;47427;51.976;5.326;2022-08-24T03:17:09;101681.44;;;18.96;95.35
45403;BME280;47427;51.976;5.326;2022-08-24T03:20:32;101691.22;;;19.00;95.53
45403;BME280;47427;51.976;5.326;2022-08-24T03:23:55;101696.47;;;18.89;94.83
45403;BME280;47427;51.976;5.326;2022-08-24T03:27:18;101680.31;;;18.60;94.77
45403;BME280;47427;51.976;5.326;2022-08-24T03:30:42;101702.41;;;18.56;94.86
45403;BME280;47427;51.976;5.326;2022-08-24T03:34:05;101693.50;;;18.45;94.85
45403;BME280;47427;51.976;5.326;2022-08-24T03:37:28;101690.81;;;18.38;94.74
45403;BME280;47427;51.976;5.326;2022-08-24T03:40:51;101695.19;;;18.33;94.80
45403;BME280;47427;51.976;5.326;2022-08-24T03:44:13;101704.91;;;18.31;94.43
45403;BME280;47427;51.976;5.326;2022-08-24T03:47:36;101697.78;;;18.26;94.69
45403;BME280;47427;51.976;5.326;2022-08-24T03:51:00;101704.84;;;18.21;94.56
45403;BME280;47427;51.976;5.326;2022-08-24T03:54:23;101709.25;;;18.22;95.08
45403;BME280;47427;51.976;5.326;2022-08-24T03:57:46;101703.94;;;18.18;95.17
45403;BME280;47427;51.976;5.326;2022-08-24T04:01:11;101700.34;;;18.13;94.93
45403;BME280;47427;51.976;5.326;2022-08-24T04:04:35;101712.72;;;18.14;94.92
45403;BME280;47427;51.976;5.326;2022-08-24T04:07:57;101710.97;;;18.13;95.45
45403;BME280;47427;51.976;5.326;2022-08-24T04:11:25;101699.38;;;18.07;95.34
45403;BME280;47427;51.976;5.326;2022-08-24T04:14:51;101706.50;;;18.11;95.10
45403;BME280;47427;51.976;5.326;2022-08-24T04:18:14;101702.06;;;18.08;95.44
45403;BME280;47427;51.976;5.326;2022-08-24T04:21:37;101703.84;;;18.09;95.27
45403;BME280;47427;51.976;5.326;2022-08-24T04:25:01;101713.56;;;18.09;95.44
45403;BME280;47427;51.976;5.326;2022-08-24T04:28:25;101712.69;;;18.08;95.33
45403;BME280;47427;51.976;5.326;2022-08-24T04:31:50;101722.41;;;18.08;95.63
45403;BME280;47427;51.976;5.326;2022-08-24T04:35:13;101716.19;;;18.07;95.62
45403;BME280;47427;51.976;5.326;2022-08-24T04:38:36;101703.78;;;18.05;95.51
45403;BME280;47427;51.976;5.326;2022-08-24T04:42:14;101718.91;;;18.12;95.31
45403;BME280;47427;51.976;5.326;2022-08-24T04:45:42;101712.66;;;18.07;95.59
45403;BME280;47427;51.976;5.326;2022-08-24T04:49:05;101730.44;;;18.14;95.43
45403;BME280;47427;51.976;5.326;2022-08-24T04:52:28;101719.84;;;18.15;95.41
45403;BME280;47427;51.976;5.326;2022-08-24T04:55:51;101724.25;;;18.15;95.28
45403;BME280;47427;51.976;5.326;2022-08-24T04:59:13;101718.09;;;18.19;95.41
45403;BME280;47427;51.976;5.326;2022-08-24T05:02:37;101724.34;;;18.27;95.30
45403;BME280;47427;51.976;5.326;2022-08-24T05:06:03;101713.72;;;18.27;95.08
45403;BME280;47427;51.976;5.326;2022-08-24T05:09:26;101719.09;;;18.32;95.04
45403;BME280;47427;51.976;5.326;2022-08-24T05:12:49;101717.31;;;18.35;94.70
45403;BME280;47427;51.976;5.326;2022-08-24T05:16:16;101706.69;;;18.35;94.71
45403;BME280;47427;51.976;5.326;2022-08-24T05:19:41;101720.97;;;18.48;94.59
45403;BME280;47427;51.976;5.326;2022-08-24T05:23:05;101723.66;;;18.53;94.71
45403;BME280;47427;51.976;5.326;2022-08-24T05:26:29;101729.94;;;18.61;94.06
45403;BME280;47427;51.976;5.326;2022-08-24T05:29:54;101730.88;;;18.68;94.50
45403;BME280;47427;51.976;5.326;2022-08-24T05:33:17;101737.13;;;18.74;94.24
45403;BME280;47427;51.976;5.326;2022-08-24T05:36:41;101734.53;;;18.80;94.06
45403;BME280;47427;51.976;5.326;2022-08-24T05:40:17;101735.44;;;18.89;93.88
45403;BME280;47427;51.976;5.326;2022-08-24T05:43:48;101739.09;;;19.03;94.15
45403;BME280;47427;51.976;5.326;2022-08-24T05:47:12;101748.94;;;19.18;93.55
45403;BME280;47427;51.976;5.326;2022-08-24T05:50:36;101735.69;;;19.27;93.59
45403;BME280;47427;51.976;5.326;2022-08-24T05:53:59;101744.59;;;19.41;93.48
45403;BME280;47427;51.976;5.326;2022-08-24T05:57:33;101739.31;;;19.51;93.33
45403;BME280;47427;51.976;5.326;2022-08-24T06:01:11;101743.88;;;19.70;92.30
45403;BME280;47427;51.976;5.326;2022-08-24T06:04:35;101742.97;;;19.82;92.09
45403;BME280;47427;51.976;5.326;2022-08-24T06:08:00;101747.44;;;19.89;92.25
45403;BME280;47427;51.976;5.326;2022-08-24T06:11:38;101748.34;;;19.94;92.48
45403;BME280;47427;51.976;5.326;2022-08-24T06:15:03;101754.59;;;20.13;92.02
45403;BME280;47427;51.976;5.326;2022-08-24T06:18:27;101749.25;;;20.25;91.59
45403;BME280;47427;51.976;5.326;2022-08-24T06:21:52;101748.38;;;20.43;91.23
45403;BME280;47427;51.976;5.326;2022-08-24T06:25:15;101751.97;;;20.62;90.66
45403;BME280;47427;51.976;5.326;2022-08-24T06:28:58;101759.06;;;20.80;90.13
45403;BME280;47427;51.976;5.326;2022-08-24T06:32:22;101758.16;;;20.95;89.78
45403;BME280;47427;51.976;5.326;2022-08-24T06:35:45;101758.97;;;21.14;89.25
45403;BME280;47427;51.976;5.326;2022-08-24T06:39:09;101768.69;;;21.33;88.26
45403;BME280;47427;51.976;5.326;2022-08-24T06:42:37;101762.47;;;21.43;87.71
45403;BME280;47427;51.976;5.326;2022-08-24T06:46:11;101776.59;;;21.70;87.63
45403;BME280;47427;51.976;5.326;2022-08-24T06:49:58;101768.72;;;22.73;85.43
45403;BME280;47427;51.976;5.326;2022-08-24T06:53:23;101769.53;;;24.81;75.51
45403;BME280;47427;51.976;5.326;2022-08-24T06:56:46;101777.88;;;26.37;70.94
45403;BME280;47427;51.976;5.326;2022-08-24T07:00:09;101778.13;;;27.31;66.98
45403;BME280;47427;51.976;5.326;2022-08-24T07:03:32;101779.81;;;28.24;61.95
45403;BME280;47427;51.976;5.326;2022-08-24T07:07:15;101780.16;;;28.93;60.87
45403;BME280;47427;51.976;5.326;2022-08-24T07:10:39;101776.91;;;29.33;58.50
45403;BME280;47427;51.976;5.326;2022-08-24T07:14:01;101783.81;;;30.33;56.18
45403;BME280;47427;51.976;5.326;2022-08-24T07:17:25;101771.25;;;30.75;53.81
45403;BME280;47427;51.976;5.326;2022-08-24T07:21:06;101775.06;;;30.91;51.19
45403;BME280;47427;51.976;5.326;2022-08-24T07:24:37;101777.72;;;31.71;49.45
45403;BME280;47427;51.976;5.326;2022-08-24T07:28:00;101781.69;;;32.21;48.13
45403;BME280;47427;51.976;5.326;2022-08-24T07:31:23;101784.16;;;32.79;46.96
45403;BME280;47427;51.976;5.326;2022-08-24T07:35:05;101785.25;;;32.93;45.75
45403;BME280;47427;51.976;5.326;2022-08-24T07:38:28;101781.91;;;33.56;43.70
45403;BME280;47427;51.976;5.326;2022-08-24T07:41:51;101789.44;;;34.46;43.99
45403;BME280;47427;51.976;5.326;2022-08-24T07:45:14;101789.25;;;34.65;40.50
45403;BME280;47427;51.976;5.326;2022-08-24T07:48:44;101785.91;;;34.90;39.84
45403;BME280;47427;51.976;5.326;2022-08-24T07:52:07;101782.00;;;34.94;39.50
45403;BME280;47427;51.976;5.326;2022-08-24T07:55:32;101778.84;;;35.16;39.21
45403;BME280;47427;51.976;5.326;2022-08-24T07:58:55;101795.75;;;34.92;39.59
45403;BME280;47427;51.976;5.326;2022-08-24T08:02:18;101788.31;;;35.68;38.77
45403;BME280;47427;51.976;5.326;2022-08-24T08:05:45;101788.91;;;36.81;36.01
45403;BME280;47427;51.976;5.326;2022-08-24T08:09:07;101798.72;;;37.24;35.34
45403;BME280;47427;51.976;5.326;2022-08-24T08:12:30;101802.66;;;38.32;33.22
45403;BME280;47427;51.976;5.326;2022-08-24T08:15:51;101802.50;;;39.28;32.02
45403;BME280;47427;51.976;5.326;2022-08-24T08:19:15;101790.06;;;39.35;31.22
45403;BME280;47427;51.976;5.326;2022-08-24T08:22:38;101797.75;;;39.19;32.03
45403;BME280;47427;51.976;5.326;2022-08-24T08:26:48;101797.19;;;40.15;30.89
45403;BME280;47427;51.976;5.326;2022-08-24T08:30:24;101803.13;;;40.96;29.83
45403;BME280;47427;51.976;5.326;2022-08-24T08:33:47;101797.31;;;41.41;28.98
45403;BME280;47427;51.976;5.326;2022-08-24T08:37:13;101802.88;;;41.30;28.43
45403;BME280;47427;51.976;5.326;2022-08-24T08:49:02;101790.41;;;43.51;26.41
45403;BME280;47427;51.976;5.326;2022-08-24T08:52:59;101792.28;;;43.60;26.04
45403;BME280;47427;51.976;5.326;2022-08-24T08:56:43;101782.72;;;43.45;24.62
45403;BME280;47427;51.976;5.326;2022-08-24T09:12:07;101789.06;;;44.64;24.12
45403;BME280;47427;51.976;5.326;2022-08-24T09:22:46;101794.00;;;45.49;21.58
45403;BME280;47427;51.976;5.326;2022-08-24T09:26:27;101797.06;;;45.80;21.14
45403;BME280;47427;51.976;5.326;2022-08-24T09:30:10;101802.97;;;46.85;21.30
45403;BME280;47427;51.976;5.326;2022-08-24T09:34:22;101792.56;;;47.90;20.18
45403;BME280;47427;51.976;5.326;2022-08-24T09:38:33;101793.53;;;48.29;19.14
45403;BME280;47427;51.976;5.326;2022-08-24T09:46:55;101792.25;;;48.08;19.12
45403;BME280;47427;51.976;5.326;2022-08-24T09:54:54;101783.19;;;49.43;18.01
45403;BME280;47427;51.976;5.326;2022-08-24T10:06:43;101787.78;;;48.30;17.31
45403;BME280;47427;51.976;5.326;2022-08-24T10:10:31;101791.06;;;49.24;16.31
45403;BME280;47427;51.976;5.326;2022-08-24T10:14:12;101771.94;;;49.51;16.62
45403;BME280;47427;51.976;5.326;2022-08-24T10:21:57;101769.13;;;45.05;20.29
45403;BME280;47427;51.976;5.326;2022-08-24T10:25:38;101766.25;;;42.49;22.76
45403;BME280;47427;51.976;5.326;2022-08-24T10:33:27;101762.78;;;43.51;22.97
45403;BME280;47427;51.976;5.326;2022-08-24T10:37:31;101758.00;;;47.45;19.84
45403;BME280;47427;51.976;5.326;2022-08-24T10:53:35;101749.94;;;50.14;15.77
45403;BME280;47427;51.976;5.326;2022-08-24T10:57:07;101751.44;;;50.88;15.89
45403;BME280;47427;51.976;5.326;2022-08-24T11:00:30;101745.69;;;51.92;15.34
45403;BME280;47427;51.976;5.326;2022-08-24T11:04:03;101744.47;;;52.48;14.82
45403;BME280;47427;51.976;5.326;2022-08-24T11:07:27;101754.97;;;52.99;13.50
45403;BME280;47427;51.976;5.326;2022-08-24T11:11:12;101752.66;;;52.43;13.14
45403;BME280;47427;51.976;5.326;2022-08-24T11:14:37;101745.97;;;52.17;14.07
45403;BME280;47427;51.976;5.326;2022-08-24T11:18:02;101742.50;;;52.35;13.43
45403;BME280;47427;51.976;5.326;2022-08-24T11:21:52;101735.38;;;52.06;13.55
45403;BME280;47427;51.976;5.326;2022-08-24T11:25:25;101734.97;;;52.49;13.35
45403;BME280;47427;51.976;5.326;2022-08-24T11:28:55;101741.00;;;52.59;13.08
45403;BME280;47427;51.976;5.326;2022-08-24T11:32:46;101729.16;;;52.57;13.16
45403;BME280;47427;51.976;5.326;2022-08-24T11:36:20;101725.25;;;50.95;13.93
45403;BME280;47427;51.976;5.326;2022-08-24T11:40:06;101719.63;;;48.41;16.35
45403;BME280;47427;51.976;5.326;2022-08-24T11:47:38;101730.09;;;48.62;16.51
45403;BME280;47427;51.976;5.326;2022-08-24T11:59:20;101712.00;;;43.24;22.52
45403;BME280;47427;51.976;5.326;2022-08-24T12:03:19;101712.19;;;44.14;21.10
45403;BME280;47427;51.976;5.326;2022-08-24T12:07:16;101708.09;;;41.23;23.69
45403;BME280;47427;51.976;5.326;2022-08-24T12:10:48;101699.34;;;38.79;26.57
45403;BME280;47427;51.976;5.326;2022-08-24T12:14:43;101713.66;;;38.25;28.25
45403;BME280;47427;51.976;5.326;2022-08-24T12:18:56;101717.09;;;38.15;29.10
45403;BME280;47427;51.976;5.326;2022-08-24T12:22:21;101711.44;;;38.41;29.45
45403;BME280;47427;51.976;5.326;2022-08-24T12:25:46;101706.78;;;39.23;27.74
45403;BME280;47427;51.976;5.326;2022-08-24T12:29:44;101708.78;;;40.31;26.59
45403;BME280;47427;51.976;5.326;2022-08-24T12:33:11;101712.09;;;44.42;22.88
45403;BME280;47427;51.976;5.326;2022-08-24T12:37:07;101710.25;;;48.42;18.76
45403;BME280;47427;51.976;5.326;2022-08-24T12:40:37;101717.16;;;50.23;14.76
45403;BME280;47427;51.976;5.326;2022-08-24T12:44:12;101709.00;;;50.49;14.27
45403;BME280;47427;51.976;5.326;2022-08-24T12:47:59;101698.72;;;47.84;15.04
45403;BME280;47427;51.976;5.326;2022-08-24T12:59:38;101712.38;;;46.43;18.81
45403;BME280;47427;51.976;5.326;2022-08-24T13:03:07;101700.59;;;46.41;19.01
45403;BME280;47427;51.976;5.326;2022-08-24T13:07:00;101701.53;;;49.64;15.91
45403;BME280;47427;51.976;5.326;2022-08-24T13:14:17;101703.47;;;52.00;14.88
45403;BME280;47427;51.976;5.326;2022-08-24T13:17:41;101689.84;;;51.64;13.57
45403;BME280;47427;51.976;5.326;2022-08-24T13:21:41;101691.84;;;49.81;13.53
45403;BME280;47427;51.976;5.326;2022-08-24T13:25:57;101683.22;;;48.80;15.73
45403;BME280;47427;51.976;5.326;2022-08-24T13:29:24;101684.31;;;49.45;15.52
45403;BME280;47427;51.976;5.326;2022-08-24T13:33:02;101679.16;;;47.38;17.12
45403;BME280;47427;51.976;5.326;2022-08-24T13:36:43;101684.97;;;49.47;16.32
45403;BME280;47427;51.976;5.326;2022-08-24T13:40:22;101686.09;;;50.61;14.19
45403;BME280;47427;51.976;5.326;2022-08-24T13:51:34;101674.34;;;47.24;17.71
45403;BME280;47427;51.976;5.326;2022-08-24T13:55:31;101670.31;;;44.35;18.63
45403;BME280;47427;51.976;5.326;2022-08-24T13:59:15;101669.69;;;42.00;23.05
45403;BME280;47427;51.976;5.326;2022-08-24T14:06:53;101671.06;;;45.24;20.60
45403;BME280;47427;51.976;5.326;2022-08-24T14:10:47;101665.41;;;47.37;18.12
45403;BME280;47427;51.976;5.326;2022-08-24T14:14:41;101670.81;;;47.92;17.61
45403;BME280;47427;51.976;5.326;2022-08-24T14:18:32;101665.06;;;48.55;17.18
45403;BME280;47427;51.976;5.326;2022-08-24T14:26:29;101662.28;;;48.99;15.74
45403;BME280;47427;51.976;5.326;2022-08-24T14:29:39;101665.25;;;49.13;16.49
45403;BME280;47427;51.976;5.326;2022-08-24T14:36:53;101652.00;;;48.70;15.64
45403;BME280;47427;51.976;5.326;2022-08-24T14:40:39;101650.16;;;48.92;15.95
45403;BME280;47427;51.976;5.326;2022-08-24T14:44:32;101646.81;;;48.14;16.53
45403;BME280;47427;51.976;5.326;2022-08-24T14:59:51;101639.16;;;45.87;18.27
45403;BME280;47427;51.976;5.326;2022-08-24T15:07:30;101631.38;;;47.66;16.84
45403;BME280;47427;51.976;5.326;2022-08-24T15:11:07;101623.28;;;47.56;17.39
45403;BME280;47427;51.976;5.326;2022-08-24T15:15:30;101625.63;;;47.36;17.33
45403;BME280;47427;51.976;5.326;2022-08-24T15:19:07;101624.06;;;47.10;17.02
45403;BME280;47427;51.976;5.326;2022-08-24T15:23:56;101618.63;;;47.40;16.50
45403;BME280;47427;51.976;5.326;2022-08-24T15:27:00;101621.75;;;47.45;17.46
45403;BME280;47427;51.976;5.326;2022-08-24T15:30:31;101620.25;;;47.34;17.69
45403;BME280;47427;51.976;5.326;2022-08-24T15:34:02;101618.66;;;46.53;17.66
45403;BME280;47427;51.976;5.326;2022-08-24T15:37:35;101615.78;;;46.05;17.05
45403;BME280;47427;51.976;5.326;2022-08-24T15:44:33;101599.28;;;45.88;17.90
45403;BME280;47427;51.976;5.326;2022-08-24T15:48:17;101611.28;;;45.96;17.17
45403;BME280;47427;51.976;5.326;2022-08-24T15:52:05;101609.69;;;46.35;17.69
45403;BME280;47427;51.976;5.326;2022-08-24T15:55:44;101609.16;;;46.39;16.18
45403;BME280;47427;51.976;5.326;2022-08-24T15:59:11;101615.91;;;46.28;17.74
45403;BME280;47427;51.976;5.326;2022-08-24T16:02:33;101613.47;;;45.60;17.79
45403;BME280;47427;51.976;5.326;2022-08-24T16:09:46;101599.06;;;43.93;19.13
45403;BME280;47427;51.976;5.326;2022-08-24T16:13:20;101604.94;;;42.71;21.06
45403;BME280;47427;51.976;5.326;2022-08-24T16:16:44;101602.28;;;42.52;20.74
45403;BME280;47427;51.976;5.326;2022-08-24T16:23:45;101606.22;;;42.20;21.01
45403;BME280;47427;51.976;5.326;2022-08-24T16:27:15;101598.88;;;42.58;20.97
45403;BME280;47427;51.976;5.326;2022-08-24T16:34:27;101608.28;;;42.08;21.41
45403;BME280;47427;51.976;5.326;2022-08-24T16:38:08;101611.91;;;41.70;22.35
45403;BME280;47427;51.976;5.326;2022-08-24T16:41:31;101600.06;;;40.79;24.07
45403;BME280;47427;51.976;5.326;2022-08-24T16:44:55;101594.19;;;40.32;24.97
45403;BME280;47427;51.976;5.326;2022-08-24T16:48:17;101595.91;;;39.47;25.87
45403;BME280;47427;51.976;5.326;2022-08-24T16:51:40;101599.09;;;39.20;26.21
45403;BME280;47427;51.976;5.326;2022-08-24T16:55:03;101597.34;;;38.74;26.66
45403;BME280;47427;51.976;5.326;2022-08-24T16:58:31;101595.00;;;37.15;28.85
45403;BME280;47427;51.976;5.326;2022-08-24T17:01:53;101597.22;;;36.08;30.95
45403;BME280;47427;51.976;5.326;2022-08-24T17:05:16;101586.66;;;35.34;32.48
45403;BME280;47427;51.976;5.326;2022-08-24T17:08:38;101598.91;;;34.86;33.04
45403;BME280;47427;51.976;5.326;2022-08-24T17:12:01;101596.22;;;34.27;34.28
45403;BME280;47427;51.976;5.326;2022-08-24T17:15:23;101594.25;;;33.84;35.56
45403;BME280;47427;51.976;5.326;2022-08-24T17:18:47;101600.44;;;33.56;36.12
45403;BME280;47427;51.976;5.326;2022-08-24T17:22:10;101605.88;;;33.09;38.82
45403;BME280;47427;51.976;5.326;2022-08-24T17:25:31;101601.03;;;32.65;39.74
45403;BME280;47427;51.976;5.326;2022-08-24T17:28:54;101603.22;;;32.23;41.38
45403;BME280;47427;51.976;5.326;2022-08-24T17:32:20;101609.66;;;31.86;42.11
45403;BME280;47427;51.976;5.326;2022-08-24T17:35:41;101607.06;;;31.48;42.26
45403;BME280;47427;51.976;5.326;2022-08-24T17:39:05;101617.38;;;31.21;42.30
45403;BME280;47427;51.976;5.326;2022-08-24T17:42:29;101617.13;;;31.06;43.11
45403;BME280;47427;51.976;5.326;2022-08-24T17:46:13;101613.63;;;30.85;44.07
45403;BME280;47427;51.976;5.326;2022-08-24T17:49:35;101623.44;;;30.67;44.30
45403;BME280;47427;51.976;5.326;2022-08-24T17:52:58;101626.34;;;30.44;45.53
45403;BME280;47427;51.976;5.326;2022-08-24T17:56:20;101625.91;;;30.33;46.27
45403;BME280;47427;51.976;5.326;2022-08-24T17:59:43;101622.97;;;30.17;46.72
45403;BME280;47427;51.976;5.326;2022-08-24T18:03:05;101629.06;;;30.01;46.88
45403;BME280;47427;51.976;5.326;2022-08-24T18:06:28;101631.84;;;29.78;48.50
45403;BME280;47427;51.976;5.326;2022-08-24T18:09:56;101648.41;;;29.47;48.92
45403;BME280;47427;51.976;5.326;2022-08-24T18:13:21;101651.31;;;29.19;49.97
45403;BME280;47427;51.976;5.326;2022-08-24T18:16:44;101644.25;;;28.91;50.75
45403;BME280;47427;51.976;5.326;2022-08-24T18:20:10;101654.72;;;28.77;51.03
45403;BME280;47427;51.976;5.326;2022-08-24T18:23:33;101645.53;;;28.56;51.85
45403;BME280;47427;51.976;5.326;2022-08-24T18:26:56;101648.66;;;28.43;52.37
45403;BME280;47427;51.976;5.326;2022-08-24T18:30:28;101648.47;;;28.23;52.88
45403;BME280;47427;51.976;5.326;2022-08-24T18:33:51;101654.50;;;28.04;53.33
45403;BME280;47427;51.976;5.326;2022-08-24T18:37:14;101657.63;;;27.92;53.85
45403;BME280;47427;51.976;5.326;2022-08-24T18:40:38;101658.59;;;27.90;53.71
45403;BME280;47427;51.976;5.326;2022-08-24T18:44:03;101654.78;;;27.69;54.32
45403;BME280;47427;51.976;5.326;2022-08-24T18:47:25;101672.31;;;27.54;55.20
45403;BME280;47427;51.976;5.326;2022-08-24T18:50:49;101664.56;;;27.43;55.59
45403;BME280;47427;51.976;5.326;2022-08-24T18:54:18;101673.16;;;27.26;55.75
45403;BME280;47427;51.976;5.326;2022-08-24T18:57:41;101668.94;;;27.16;56.48
45403;BME280;47427;51.976;5.326;2022-08-24T19:01:04;101674.75;;;27.02;56.57
45403;BME280;47427;51.976;5.326;2022-08-24T19:04:26;101668.69;;;26.94;57.21
45403;BME280;47427;51.976;5.326;2022-08-24T19:07:52;101658.44;;;26.77;58.05
45403;BME280;47427;51.976;5.326;2022-08-24T19:11:22;101666.53;;;26.75;58.12
45403;BME280;47427;51.976;5.326;2022-08-24T19:14:44;101667.72;;;26.65;58.20
45403;BME280;47427;51.976;5.326;2022-08-24T19:18:08;101666.28;;;26.52;58.78
45403;BME280;47427;51.976;5.326;2022-08-24T19:21:34;101670.13;;;26.42;59.13
45403;BME280;47427;51.976;5.326;2022-08-24T19:24:57;101681.09;;;26.34;59.53
45403;BME280;47427;51.976;5.326;2022-08-24T19:28:22;101666.97;;;26.26;59.74
45403;BME280;47427;51.976;5.326;2022-08-24T19:31:44;101686.03;;;26.16;60.07
45403;BME280;47427;51.976;5.326;2022-08-24T19:35:26;101689.69;;;26.14;59.91
45403;BME280;47427;51.976;5.326;2022-08-24T19:38:49;101691.53;;;26.12;60.37
45403;BME280;47427;51.976;5.326;2022-08-24T19:42:12;101689.19;;;25.98;61.12
45403;BME280;47427;51.976;5.326;2022-08-24T19:45:36;101692.16;;;25.84;61.11
45403;BME280;47427;51.976;5.326;2022-08-24T19:49:17;101687.13;;;25.70;61.39
45403;BME280;47427;51.976;5.326;2022-08-24T19:52:40;101677.28;;;25.69;61.63
45403;BME280;47427;51.976;5.326;2022-08-24T19:56:04;101686.44;;;25.61;61.82
45403;BME280;47427;51.976;5.326;2022-08-24T19:59:33;101686.47;;;25.59;62.13
45403;BME280;47427;51.976;5.326;2022-08-24T20:02:59;101678.50;;;25.56;62.63
45403;BME280;47427;51.976;5.326;2022-08-24T20:06:23;101682.94;;;25.57;62.45
45403;BME280;47427;51.976;5.326;2022-08-24T20:09:47;101688.47;;;25.49;62.82
45403;BME280;47427;51.976;5.326;2022-08-24T20:13:09;101674.34;;;25.41;63.24
45403;BME280;47427;51.976;5.326;2022-08-24T20:16:39;101681.72;;;25.32;63.37
45403;BME280;47427;51.976;5.326;2022-08-24T20:20:08;101691.59;;;25.31;64.10
45403;BME280;47427;51.976;5.326;2022-08-24T20:23:32;101691.63;;;25.29;64.37
45403;BME280;47427;51.976;5.326;2022-08-24T20:26:53;101685.31;;;25.32;64.13
45403;BME280;47427;51.976;5.326;2022-08-24T20:30:16;101679.03;;;25.32;64.59
45403;BME280;47427;51.976;5.326;2022-08-24T20:33:39;101685.19;;;25.37;64.86
45403;BME280;47427;51.976;5.326;2022-08-24T20:37:01;101690.69;;;25.32;64.99
45403;BME280;47427;51.976;5.326;2022-08-24T20:40:24;101688.03;;;25.30;65.54
45403;BME280;47427;51.976;5.326;2022-08-24T20:43:47;101684.63;;;25.21;65.91